Time;durP1;ratioP1;P1;durP2;ratioP2;P2;SDS_P1;SDS_P2;PMS_P1;PMS_P2;Temp;Humidity;BMP_temperature;BMP_pressure;BME280_temperature;BME280_humidity;BME280_pressure;Samples;Min_cycle;Max_cycle;Signal;HPM_P1;HPM_P2
2023/08/27 00:00:38;;;;;;;10.65;8.10;;;;;;;;;;5008793;28;20397;-66
2023/08/27 00:03:03;;;;;;;11.98;8.02;;;;;;;;;;5006236;28;20278;-66
2023/08/27 00:05:29;;;;;;;11.02;8.77;;;;;;;;;;5005995;28;20178;-66
2023/08/27 00:07:54;;;;;;;11.82;8.40;;;;;;;;;;5006412;28;20191;-66
2023/08/27 00:10:19;;;;;;;14.38;8.82;;;;;;;;;;5007713;28;20218;-66
2023/08/27 00:12:44;;;;;;;11.52;7.63;;;;;;;;;;5019992;22;20659;-69
2023/08/27 00:15:10;;;;;;;11.48;8.55;;;;;;;;;;5006431;28;20703;-69
2023/08/27 00:17:35;;;;;;;10.25;7.78;;;;;;;;;;5007610;28;20224;-69
2023/08/27 00:20:00;;;;;;;12.20;9.43;;;;;;;;;;5006314;28;20995;-70
2023/08/27 00:22:25;;;;;;;10.55;8.73;;;;;;;;;;5004625;28;20203;-71
2023/08/27 00:24:51;;;;;;;13.02;8.82;;;;;;;;;;5006998;28;20321;-69
2023/08/27 00:27:16;;;;;;;8.93;7.60;;;;;;;;;;5007289;28;20186;-70
2023/08/27 00:29:41;;;;;;;10.35;7.82;;;;;;;;;;5008703;28;20201;-70
2023/08/27 00:32:07;;;;;;;11.63;8.20;;;;;;;;;;5008008;28;20692;-70
2023/08/27 00:34:35;;;;;;;9.25;7.53;;;;;;;;;;5007931;28;20195;-69
2023/08/27 00:37:00;;;;;;;11.77;8.50;;;;;;;;;;5005752;28;20639;-70
2023/08/27 00:39:26;;;;;;;9.82;7.95;;;;;;;;;;5006836;28;20218;-69
2023/08/27 00:41:51;;;;;;;8.63;7.47;;;;;;;;;;5007145;28;20760;-70
2023/08/27 00:44:16;;;;;;;10.48;7.43;;;;;;;;;;5007981;28;20198;-70
2023/08/27 00:46:42;;;;;;;11.70;8.60;;;;;;;;;;5005843;28;20201;-69
2023/08/27 00:49:07;;;;;;;12.68;8.75;;;;;;;;;;5008094;28;20198;-70
2023/08/27 00:51:32;;;;;;;11.35;7.10;;;;;;;;;;5008384;28;20185;-69
2023/08/27 00:53:58;;;;;;;11.85;7.63;;;;;;;;;;5006588;28;20653;-70
2023/08/27 00:56:24;;;;;;;11.43;8.63;;;;;;;;;;5006134;28;20279;-70
2023/08/27 00:58:49;;;;;;;9.27;7.07;;;;;;;;;;5004703;28;20202;-70
2023/08/27 01:01:15;;;;;;;17.88;9.00;;;;;;;;;;5007711;28;20265;-69
2023/08/27 01:03:41;;;;;;;10.65;7.93;;;;;;;;;;5008343;28;20833;-69
2023/08/27 01:06:07;;;;;;;11.35;8.13;;;;;;;;;;5006796;28;20578;-69
2023/08/27 01:08:51;;;;;;;8.43;7.30;;;;;;;;;;5007414;28;20185;-70
2023/08/27 01:11:22;;;;;;;10.00;7.40;;;;;;;;;;5008390;28;20229;-69
2023/08/27 01:13:52;;;;;;;9.30;7.03;;;;;;;;;;5007579;28;20275;-70
2023/08/27 01:16:19;;;;;;;8.55;6.65;;;;;;;;;;5004673;28;20213;-69
2023/08/27 01:18:45;;;;;;;12.00;7.78;;;;;;;;;;5008288;28;20677;-70
2023/08/27 01:21:16;;;;;;;8.85;6.95;;;;;;;;;;5011029;28;20178;-70
2023/08/27 01:23:41;;;;;;;10.77;7.20;;;;;;;;;;5009787;28;20275;-69
2023/08/27 01:26:07;;;;;;;8.30;6.68;;;;;;;;;;5010066;28;20182;-70
2023/08/27 01:28:37;;;;;;;9.57;6.88;;;;;;;;;;5009865;28;20190;-69
2023/08/27 01:31:06;;;;;;;7.90;6.30;;;;;;;;;;5009877;28;21055;-69
2023/08/27 01:33:32;;;;;;;8.70;6.20;;;;;;;;;;5010146;28;20214;-69
2023/08/27 01:35:58;;;;;;;7.70;5.97;;;;;;;;;;5008318;28;20288;-70
2023/08/27 01:38:23;;;;;;;7.95;6.53;;;;;;;;;;5010832;28;20209;-69
2023/08/27 01:40:48;;;;;;;9.13;6.40;;;;;;;;;;5010161;28;20201;-69
2023/08/27 01:43:14;;;;;;;9.13;6.45;;;;;;;;;;5009235;28;20317;-69
2023/08/27 01:45:39;;;;;;;10.00;6.47;;;;;;;;;;5009080;28;20179;-70
2023/08/27 01:48:04;;;;;;;10.95;6.38;;;;;;;;;;5008253;28;20187;-69
2023/08/27 01:50:30;;;;;;;8.00;6.30;;;;;;;;;;5008068;28;20193;-68
2023/08/27 01:52:55;;;;;;;11.30;6.43;;;;;;;;;;5009726;28;20261;-70
2023/08/27 01:55:20;;;;;;;8.75;5.95;;;;;;;;;;5010495;28;20563;-69
2023/08/27 01:57:46;;;;;;;7.30;5.72;;;;;;;;;;5009601;28;20210;-70
2023/08/27 02:00:11;;;;;;;8.80;5.70;;;;;;;;;;5008667;28;20571;-70
2023/08/27 02:02:36;;;;;;;11.32;6.32;;;;;;;;;;5009379;28;20202;-70
2023/08/27 02:05:05;;;;;;;10.82;6.30;;;;;;;;;;5009701;28;21055;-70
2023/08/27 02:07:31;;;;;;;11.95;6.78;;;;;;;;;;5009374;28;20574;-70
2023/08/27 02:09:56;;;;;;;9.25;6.68;;;;;;;;;;5009670;28;20183;-70
2023/08/27 02:12:21;;;;;;;8.13;5.97;;;;;;;;;;5009661;28;20764;-70
2023/08/27 02:14:47;;;;;;;7.15;6.20;;;;;;;;;;5009480;28;20660;-70
2023/08/27 02:17:13;;;;;;;9.63;6.10;;;;;;;;;;5009338;28;20214;-69
2023/08/27 02:19:38;;;;;;;11.38;6.15;;;;;;;;;;5011081;28;20567;-69
2023/08/27 02:22:03;;;;;;;9.02;5.97;;;;;;;;;;5010913;28;20234;-69
2023/08/27 02:24:28;;;;;;;8.68;5.68;;;;;;;;;;5010760;28;20180;-69
2023/08/27 02:26:53;;;;;;;7.50;5.57;;;;;;;;;;5010447;28;20198;-69
2023/08/27 02:29:19;;;;;;;7.97;6.13;;;;;;;;;;5008525;28;20187;-69
2023/08/27 02:31:44;;;;;;;6.30;5.57;;;;;;;;;;5010253;28;20210;-69
2023/08/27 02:34:10;;;;;;;10.35;6.32;;;;;;;;;;5011000;28;20182;-69
2023/08/27 02:36:35;;;;;;;14.90;6.88;;;;;;;;;;5007286;28;20190;-70
2023/08/27 02:39:00;;;;;;;11.25;6.28;;;;;;;;;;5010588;28;20674;-70
2023/08/27 02:41:26;;;;;;;8.13;6.35;;;;;;;;;;5010222;28;20174;-69
2023/08/27 02:43:51;;;;;;;7.57;6.00;;;;;;;;;;5010299;28;20174;-70
2023/08/27 02:46:16;;;;;;;8.27;6.55;;;;;;;;;;5010158;28;20201;-69
2023/08/27 02:48:41;;;;;;;9.90;6.82;;;;;;;;;;5010677;28;20202;-70
2023/08/27 02:51:06;;;;;;;10.80;6.88;;;;;;;;;;5008314;28;20202;-70
2023/08/27 02:53:32;;;;;;;10.02;6.65;;;;;;;;;;5009325;28;20310;-69
2023/08/27 02:55:57;;;;;;;8.63;6.45;;;;;;;;;;5009967;28;20608;-70
2023/08/27 02:58:22;;;;;;;9.50;6.93;;;;;;;;;;5009167;28;21722;-69
2023/08/27 03:00:48;;;;;;;9.68;7.07;;;;;;;;;;5010000;28;20190;-70
2023/08/27 03:03:13;;;;;;;9.15;6.93;;;;;;;;;;5008781;28;20822;-69
2023/08/27 03:05:39;;;;;;;8.77;6.57;;;;;;;;;;5008681;28;20195;-68
2023/08/27 03:08:04;;;;;;;8.65;6.88;;;;;;;;;;5009002;28;20191;-70
2023/08/27 03:10:29;;;;;;;9.90;7.05;;;;;;;;;;5008818;28;20193;-71
2023/08/27 03:12:55;;;;;;;8.27;5.43;;;;;;;;;;5007343;28;20260;-71
2023/08/27 03:15:20;;;;;;;12.15;7.45;;;;;;;;;;5008218;28;20186;-70
2023/08/27 03:17:45;;;;;;;7.40;6.40;;;;;;;;;;5008919;28;21163;-68
2023/08/27 03:20:10;;;;;;;9.63;7.53;;;;;;;;;;5008423;28;20187;-70
2023/08/27 03:22:37;;;;;;;9.52;7.05;;;;;;;;;;5008727;28;20591;-70
2023/08/27 03:25:02;;;;;;;8.88;6.70;;;;;;;;;;5008880;28;20195;-71
2023/08/27 03:27:28;;;;;;;10.75;7.28;;;;;;;;;;5009031;28;20190;-70
2023/08/27 03:29:53;;;;;;;7.78;6.03;;;;;;;;;;5007437;28;20293;-70
2023/08/27 03:32:19;;;;;;;11.90;7.32;;;;;;;;;;5009286;28;20321;-71
2023/08/27 03:34:44;;;;;;;12.63;6.88;;;;;;;;;;5008740;28;20186;-71
2023/08/27 03:37:09;;;;;;;11.88;6.78;;;;;;;;;;5007943;28;20206;-70
2023/08/27 03:39:34;;;;;;;10.55;7.13;;;;;;;;;;5007965;28;20182;-70
2023/08/27 03:42:00;;;;;;;10.50;7.20;;;;;;;;;;5007606;28;21094;-70
2023/08/27 03:44:25;;;;;;;10.75;7.03;;;;;;;;;;5008140;28;20268;-68
2023/08/27 03:46:50;;;;;;;8.82;6.72;;;;;;;;;;5006039;28;20198;-69
2023/08/27 03:49:15;;;;;;;7.55;6.55;;;;;;;;;;5009212;28;20606;-70
2023/08/27 03:51:41;;;;;;;13.32;7.35;;;;;;;;;;5004723;28;20222;-69
2023/08/27 03:54:06;;;;;;;10.57;7.35;;;;;;;;;;5008865;28;20197;-70
2023/08/27 03:56:32;;;;;;;10.88;8.23;;;;;;;;;;5007353;28;20660;-69
2023/08/27 03:58:57;;;;;;;11.82;7.05;;;;;;;;;;5009641;28;20178;-68
2023/08/27 04:01:22;;;;;;;11.25;6.93;;;;;;;;;;5006958;28;20190;-70
2023/08/27 04:03:48;;;;;;;15.57;7.65;;;;;;;;;;5008605;28;20252;-69
2023/08/27 04:06:13;;;;;;;11.45;7.85;;;;;;;;;;5008184;28;20602;-70
2023/08/27 04:08:38;;;;;;;11.07;7.63;;;;;;;;;;5008236;28;20198;-70
2023/08/27 04:11:04;;;;;;;10.25;7.68;;;;;;;;;;5005739;28;20217;-68
2023/08/27 04:13:29;;;;;;;10.80;7.53;;;;;;;;;;5007903;28;20241;-71
2023/08/27 04:15:59;;;;;;;11.35;7.35;;;;;;;;;;5008417;28;20191;-70
2023/08/27 04:18:24;;;;;;;13.73;8.27;;;;;;;;;;5007171;28;20210;-70
2023/08/27 04:20:50;;;;;;;10.32;7.70;;;;;;;;;;5007198;28;20229;-70
2023/08/27 04:23:15;;;;;;;10.68;8.15;;;;;;;;;;5008841;28;20194;-70
2023/08/27 04:25:43;;;;;;;10.38;7.82;;;;;;;;;;5008415;28;20316;-70
2023/08/27 04:28:08;;;;;;;10.95;7.70;;;;;;;;;;5007632;28;20198;-70
2023/08/27 04:30:33;;;;;;;13.05;7.55;;;;;;;;;;5006299;28;20242;-70
2023/08/27 04:32:58;;;;;;;13.48;7.45;;;;;;;;;;5005936;28;20213;-70
2023/08/27 04:35:24;;;;;;;13.10;8.52;;;;;;;;;;5008031;28;20182;-71
2023/08/27 04:37:49;;;;;;;9.55;7.72;;;;;;;;;;5008445;28;20202;-69
2023/08/27 04:40:14;;;;;;;10.15;7.75;;;;;;;;;;5007471;28;20187;-69
2023/08/27 04:42:41;;;;;;;11.27;6.97;;;;;;;;;;5008372;28;20248;-69
2023/08/27 04:45:06;;;;;;;9.52;6.82;;;;;;;;;;5008289;28;20182;-69
2023/08/27 04:47:32;;;;;;;10.45;7.47;;;;;;;;;;5008062;28;20183;-69
2023/08/27 04:49:57;;;;;;;9.07;6.53;;;;;;;;;;5008876;28;20183;-70
2023/08/27 04:52:22;;;;;;;10.40;7.05;;;;;;;;;;5006814;28;20237;-70
2023/08/27 04:54:47;;;;;;;11.95;7.25;;;;;;;;;;5008136;28;20768;-70
2023/08/27 04:57:13;;;;;;;10.57;7.80;;;;;;;;;;5007126;28;20214;-70
2023/08/27 04:59:38;;;;;;;9.38;7.07;;;;;;;;;;5008411;28;20201;-70
2023/08/27 05:02:03;;;;;;;10.13;6.97;;;;;;;;;;5006755;28;20752;-70
2023/08/27 05:04:29;;;;;;;10.77;7.10;;;;;;;;;;5006791;28;20186;-69
2023/08/27 05:06:54;;;;;;;9.85;7.00;;;;;;;;;;5006734;28;20191;-70
2023/08/27 05:09:19;;;;;;;9.98;6.53;;;;;;;;;;5008348;28;20191;-70
2023/08/27 05:11:45;;;;;;;10.95;7.88;;;;;;;;;;5003536;28;20214;-70
2023/08/27 05:14:10;;;;;;;8.50;7.05;;;;;;;;;;5008129;28;20197;-70
2023/08/27 05:16:35;;;;;;;9.02;6.68;;;;;;;;;;5006640;28;20186;-70
2023/08/27 05:19:00;;;;;;;9.25;6.50;;;;;;;;;;5005522;28;20723;-70
2023/08/27 05:21:26;;;;;;;8.30;6.93;;;;;;;;;;5005089;28;20194;-69
2023/08/27 05:23:52;;;;;;;9.63;6.50;;;;;;;;;;5006329;28;20634;-70
2023/08/27 05:26:17;;;;;;;8.35;6.75;;;;;;;;;;5006650;28;20179;-69
2023/08/27 05:28:43;;;;;;;12.98;6.22;;;;;;;;;;5007364;28;20559;-68
2023/08/27 05:31:08;;;;;;;11.18;6.32;;;;;;;;;;5008086;28;20192;-68
2023/08/27 05:33:33;;;;;;;8.07;5.97;;;;;;;;;;5006536;28;20936;-69
2023/08/27 05:35:58;;;;;;;7.38;5.25;;;;;;;;;;5005488;28;20185;-70
2023/08/27 05:38:24;;;;;;;7.95;5.22;;;;;;;;;;5007739;28;20284;-70
2023/08/27 05:40:52;;;;;;;7.50;5.50;;;;;;;;;;5007842;28;20248;-69
2023/08/27 05:43:17;;;;;;;9.15;6.20;;;;;;;;;;5007132;28;20992;-70
2023/08/27 05:45:43;;;;;;;7.60;4.30;;;;;;;;;;5006623;28;21118;-69
2023/08/27 05:48:08;;;;;;;6.45;5.47;;;;;;;;;;5007363;28;20183;-70
2023/08/27 05:50:34;;;;;;;5.65;5.00;;;;;;;;;;5006645;28;20183;-69
2023/08/27 05:53:01;;;;;;;9.05;5.03;;;;;;;;;;5004642;28;20210;-70
2023/08/27 05:55:26;;;;;;;7.40;5.43;;;;;;;;;;5004657;28;20791;-69
2023/08/27 05:57:51;;;;;;;6.50;5.20;;;;;;;;;;5006833;28;20229;-69
2023/08/27 06:00:17;;;;;;;8.43;5.10;;;;;;;;;;5005159;28;21639;-70
2023/08/27 06:02:42;;;;;;;6.70;4.57;;;;;;;;;;5004976;28;20207;-69
2023/08/27 06:05:07;;;;;;;5.20;4.55;;;;;;;;;;5006998;28;20682;-70
2023/08/27 06:07:33;;;;;;;6.47;4.43;;;;;;;;;;5009582;28;20289;-69
2023/08/27 06:09:58;;;;;;;8.13;4.30;;;;;;;;;;5009560;28;20559;-69
2023/08/27 06:12:23;;;;;;;6.22;4.72;;;;;;;;;;5022838;22;20600;-66
2023/08/27 06:14:48;;;;;;;8.60;5.03;;;;;;;;;;5010286;28;20203;-67
2023/08/27 06:17:13;;;;;;;5.22;4.40;;;;;;;;;;5010813;28;20214;-66
2023/08/27 06:19:39;;;;;;;8.55;4.55;;;;;;;;;;5011032;28;20875;-67
2023/08/27 06:22:04;;;;;;;7.05;4.32;;;;;;;;;;5010679;28;20668;-66
2023/08/27 06:24:29;;;;;;;6.47;5.25;;;;;;;;;;5001765;28;20647;-67
2023/08/27 06:26:54;;;;;;;5.05;4.03;;;;;;;;;;4999927;28;20673;-67
2023/08/27 06:29:19;;;;;;;8.40;4.72;;;;;;;;;;4999421;28;20179;-66
2023/08/27 06:31:45;;;;;;;8.65;4.80;;;;;;;;;;5000643;28;20316;-67
2023/08/27 06:34:10;;;;;;;5.55;4.50;;;;;;;;;;4999904;28;20202;-67
2023/08/27 06:36:36;;;;;;;7.95;4.25;;;;;;;;;;5000328;28;20939;-66
2023/08/27 06:39:01;;;;;;;6.75;4.60;;;;;;;;;;4999732;28;20217;-66
2023/08/27 06:41:26;;;;;;;9.13;4.47;;;;;;;;;;5000837;28;20318;-67
2023/08/27 06:43:52;;;;;;;7.03;4.72;;;;;;;;;;5000240;28;20210;-67
2023/08/27 06:46:17;;;;;;;6.35;4.72;;;;;;;;;;4999490;28;20202;-67
2023/08/27 06:48:42;;;;;;;7.85;4.32;;;;;;;;;;4999859;28;20218;-67
2023/08/27 06:51:08;;;;;;;7.40;4.35;;;;;;;;;;4999899;28;20351;-66
2023/08/27 06:53:33;;;;;;;7.68;4.60;;;;;;;;;;4999712;28;20289;-67
2023/08/27 06:55:58;;;;;;;8.88;4.40;;;;;;;;;;4998383;28;20195;-67
2023/08/27 06:58:23;;;;;;;9.95;4.70;;;;;;;;;;4998200;28;20230;-66
2023/08/27 07:00:49;;;;;;;7.40;4.88;;;;;;;;;;4996885;28;20191;-66
2023/08/27 07:03:14;;;;;;;7.20;5.03;;;;;;;;;;4989846;28;20225;-68
2023/08/27 07:05:39;;;;;;;7.20;4.68;;;;;;;;;;4994434;28;20199;-65
2023/08/27 07:08:05;;;;;;;8.55;5.78;;;;;;;;;;4993705;28;20426;-67
2023/08/27 07:10:30;;;;;;;7.88;5.75;;;;;;;;;;4994324;28;20186;-66
2023/08/27 07:12:55;;;;;;;8.02;5.18;;;;;;;;;;4993352;28;20226;-66
2023/08/27 07:15:20;;;;;;;11.07;6.25;;;;;;;;;;4999743;28;20187;-67
2023/08/27 07:17:45;;;;;;;10.50;6.00;;;;;;;;;;4999491;28;20606;-66
2023/08/27 07:20:11;;;;;;;13.07;7.18;;;;;;;;;;5000418;28;20176;-66
2023/08/27 07:22:36;;;;;;;9.43;6.60;;;;;;;;;;4999592;28;20206;-66
2023/08/27 07:25:03;;;;;;;12.15;7.53;;;;;;;;;;5000192;28;20199;-66
2023/08/27 07:27:28;;;;;;;11.85;7.57;;;;;;;;;;4998649;28;20898;-66
2023/08/27 07:29:53;;;;;;;8.70;6.43;;;;;;;;;;4999317;28;20324;-66
2023/08/27 07:32:18;;;;;;;12.23;7.10;;;;;;;;;;4999272;28;20214;-66
2023/08/27 07:34:44;;;;;;;12.15;8.13;;;;;;;;;;4999818;28;20278;-66
2023/08/27 07:37:09;;;;;;;9.90;7.32;;;;;;;;;;4997431;28;20799;-66
2023/08/27 07:39:34;;;;;;;9.38;7.88;;;;;;;;;;4999177;28;20179;-68
2023/08/27 07:41:59;;;;;;;11.75;8.18;;;;;;;;;;5000030;28;20262;-65
2023/08/27 07:44:25;;;;;;;12.65;8.68;;;;;;;;;;4997441;28;20215;-68
2023/08/27 07:46:50;;;;;;;13.63;8.57;;;;;;;;;;4996633;28;20199;-66
2023/08/27 07:49:15;;;;;;;11.13;8.10;;;;;;;;;;4996158;28;20179;-66
2023/08/27 07:51:41;;;;;;;11.50;7.10;;;;;;;;;;4990713;28;20186;-66
2023/08/27 07:54:06;;;;;;;8.77;6.22;;;;;;;;;;4992791;28;20210;-66
2023/08/27 07:56:31;;;;;;;10.65;6.70;;;;;;;;;;4996591;28;20528;-66
2023/08/27 07:58:56;;;;;;;7.65;6.13;;;;;;;;;;4997517;28;20305;-66
2023/08/27 08:01:21;;;;;;;8.73;6.40;;;;;;;;;;4999404;28;20206;-67
2023/08/27 08:03:47;;;;;;;11.73;6.85;;;;;;;;;;4993867;28;20592;-66
2023/08/27 08:06:13;;;;;;;9.13;6.18;;;;;;;;;;4997026;28;20183;-67
2023/08/27 08:08:39;;;;;;;11.02;7.35;;;;;;;;;;4994810;28;20187;-66
2023/08/27 08:11:04;;;;;;;8.43;6.57;;;;;;;;;;4994968;28;20238;-66
2023/08/27 08:13:29;;;;;;;8.85;6.07;;;;;;;;;;4996417;28;20245;-66
2023/08/27 08:15:54;;;;;;;7.05;6.32;;;;;;;;;;4996211;28;20197;-66
2023/08/27 08:18:19;;;;;;;11.20;6.60;;;;;;;;;;4996578;28;20306;-66
2023/08/27 08:20:45;;;;;;;8.27;5.80;;;;;;;;;;4995455;28;20322;-66
2023/08/27 08:23:11;;;;;;;6.75;5.80;;;;;;;;;;4995795;28;20199;-65
2023/08/27 08:25:37;;;;;;;6.18;5.35;;;;;;;;;;4994060;28;20198;-66
2023/08/27 08:28:03;;;;;;;5.90;5.38;;;;;;;;;;4996153;28;20205;-65
2023/08/27 08:30:28;;;;;;;9.63;5.05;;;;;;;;;;4997402;28;20305;-66
2023/08/27 08:32:54;;;;;;;7.05;4.68;;;;;;;;;;4996938;28;20865;-67
2023/08/27 08:35:19;;;;;;;8.20;5.60;;;;;;;;;;4997878;28;20206;-67
2023/08/27 08:37:44;;;;;;;7.38;5.57;;;;;;;;;;4994370;28;20213;-67
2023/08/27 08:40:10;;;;;;;5.57;4.80;;;;;;;;;;4997690;28;20226;-66
2023/08/27 08:42:36;;;;;;;5.55;4.93;;;;;;;;;;4998231;28;20237;-66
2023/08/27 08:45:04;;;;;;;5.60;5.07;;;;;;;;;;4998447;28;20198;-67
2023/08/27 08:47:29;;;;;;;8.45;5.15;;;;;;;;;;4995664;28;21418;-67
2023/08/27 08:49:55;;;;;;;5.88;4.22;;;;;;;;;;4996771;28;21052;-67
2023/08/27 08:52:21;;;;;;;5.32;4.55;;;;;;;;;;4996491;28;20206;-66
2023/08/27 08:54:51;;;;;;;7.13;5.00;;;;;;;;;;4997322;28;20543;-66
2023/08/27 08:57:16;;;;;;;6.50;4.40;;;;;;;;;;4998367;28;20211;-65
2023/08/27 08:59:43;;;;;;;6.03;4.55;;;;;;;;;;4995281;28;20233;-66
2023/08/27 09:02:10;;;;;;;5.18;4.28;;;;;;;;;;4991036;28;20206;-66
2023/08/27 09:04:36;;;;;;;5.90;5.28;;;;;;;;;;4991753;28;20214;-66
2023/08/27 09:07:03;;;;;;;5.88;5.30;;;;;;;;;;4990864;28;20297;-66
2023/08/27 09:09:28;;;;;;;6.88;5.63;;;;;;;;;;4997591;28;20191;-66
2023/08/27 09:11:54;;;;;;;6.63;4.90;;;;;;;;;;4996337;28;20191;-65
2023/08/27 09:14:21;;;;;;;5.22;3.85;;;;;;;;;;4997715;28;20643;-66
2023/08/27 09:16:46;;;;;;;5.00;3.20;;;;;;;;;;4996888;28;20674;-67
2023/08/27 09:19:11;;;;;;;4.43;2.58;;;;;;;;;;4996201;28;20229;-66
2023/08/27 09:21:37;;;;;;;2.53;2.17;;;;;;;;;;4994582;28;20317;-66
2023/08/27 09:24:02;;;;;;;1.90;1.73;;;;;;;;;;5000869;28;20213;-66
2023/08/27 09:26:27;;;;;;;2.75;2.20;;;;;;;;;;5000148;28;20652;-66
2023/08/27 09:28:52;;;;;;;2.92;2.20;;;;;;;;;;4998322;28;20205;-67
2023/08/27 09:31:39;;;;;;;3.00;2.45;;;;;;;;;;5001127;28;20187;-67
2023/08/27 09:34:05;;;;;;;2.83;1.90;;;;;;;;;;5003325;28;20297;-67
2023/08/27 09:36:35;;;;;;;4.57;1.92;;;;;;;;;;4998494;28;20722;-67
2023/08/27 09:39:07;;;;;;;3.33;1.48;;;;;;;;;;4996557;28;20211;-67
2023/08/27 09:41:35;;;;;;;2.03;1.58;;;;;;;;;;4997058;28;20482;-67
2023/08/27 09:44:01;;;;;;;1.55;1.45;;;;;;;;;;4996585;28;20692;-66
2023/08/27 09:46:26;;;;;;;1.15;0.93;;;;;;;;;;4998721;28;20277;-66
2023/08/27 09:49:04;;;;;;;1.92;1.20;;;;;;;;;;5000576;28;20211;-66
2023/08/27 09:51:30;;;;;;;4.18;1.73;;;;;;;;;;4994962;28;20194;-66
2023/08/27 09:53:56;;;;;;;2.85;0.73;;;;;;;;;;4991881;28;20789;-66
2023/08/27 09:56:21;;;;;;;2.55;1.30;;;;;;;;;;4994177;28;20199;-67
2023/08/27 09:58:47;;;;;;;4.63;0.57;;;;;;;;;;4993832;28;20219;-66
2023/08/27 10:01:12;;;;;;;0.77;0.73;;;;;;;;;;4997296;28;20191;-65
2023/08/27 10:03:37;;;;;;;2.03;0.68;;;;;;;;;;4998349;28;20257;-66
2023/08/27 10:06:02;;;;;;;0.47;0.45;;;;;;;;;;4996390;28;20183;-66
2023/08/27 10:08:28;;;;;;;1.40;0.50;;;;;;;;;;4995633;28;20969;-65
2023/08/27 10:11:08;;;;;;;0.40;0.35;;;;;;;;;;4994675;28;20702;-66
2023/08/27 10:13:33;;;;;;;0.95;0.70;;;;;;;;;;4998590;28;20245;-66
2023/08/27 10:15:59;;;;;;;1.35;0.90;;;;;;;;;;4996868;28;20665;-66
2023/08/27 10:18:24;;;;;;;1.50;1.40;;;;;;;;;;4999578;28;20227;-67
2023/08/27 10:20:50;;;;;;;1.25;1.15;;;;;;;;;;4994276;28;20191;-67
2023/08/27 10:23:16;;;;;;;1.98;1.10;;;;;;;;;;4994685;28;20260;-66
2023/08/27 10:25:42;;;;;;;0.98;0.93;;;;;;;;;;4997589;28;20223;-67
2023/08/27 10:28:08;;;;;;;1.58;1.00;;;;;;;;;;4999449;28;20191;-67
2023/08/27 10:30:34;;;;;;;1.10;1.00;;;;;;;;;;4999443;28;20952;-66
2023/08/27 10:32:59;;;;;;;3.20;1.38;;;;;;;;;;4992813;28;20207;-67
2023/08/27 10:35:25;;;;;;;3.83;1.15;;;;;;;;;;4999835;28;20214;-67
2023/08/27 10:37:52;;;;;;;4.53;1.27;;;;;;;;;;4997555;28;20210;-67
2023/08/27 10:40:17;;;;;;;1.60;1.05;;;;;;;;;;5000126;28;20179;-66
2023/08/27 10:42:42;;;;;;;1.30;1.20;;;;;;;;;;4998929;28;20229;-65
2023/08/27 10:45:16;;;;;;;4.60;1.38;;;;;;;;;;5000326;28;20187;-66
2023/08/27 10:47:42;;;;;;;1.92;1.55;;;;;;;;;;4995334;28;21064;-67
2023/08/27 10:50:07;;;;;;;1.42;1.33;;;;;;;;;;4994569;28;21098;-66
2023/08/27 10:52:53;;;;;;;1.67;1.17;;;;;;;;;;4999032;28;20238;-66
2023/08/27 10:55:33;;;;;;;3.70;1.77;;;;;;;;;;4998243;28;20685;-66
2023/08/27 10:58:12;;;;;;;2.45;1.50;;;;;;;;;;4997817;28;20331;-66
2023/08/27 11:00:56;;;;;;;1.30;1.20;;;;;;;;;;4997166;28;20233;-67
2023/08/27 11:03:21;;;;;;;1.50;1.40;;;;;;;;;;4998000;28;20205;-66
2023/08/27 11:06:07;;;;;;;2.05;1.00;;;;;;;;;;4998937;28;20187;-67
2023/08/27 11:08:35;;;;;;;1.10;1.00;;;;;;;;;;4992398;28;20183;-66
2023/08/27 11:11:10;;;;;;;2.80;1.40;;;;;;;;;;4996549;28;20197;-67
2023/08/27 11:13:38;;;;;;;3.13;1.08;;;;;;;;;;4991563;28;20582;-66
2023/08/27 11:16:09;;;;;;;2.08;1.35;;;;;;;;;;4994126;28;20294;-67
2023/08/27 11:18:48;;;;;;;2.78;1.08;;;;;;;;;;4993851;28;21083;-66
2023/08/27 11:21:25;;;;;;;1.52;1.25;;;;;;;;;;4995387;28;21068;-66
2023/08/27 11:24:09;;;;;;;1.20;0.85;;;;;;;;;;4991248;28;20207;-66
2023/08/27 11:26:35;;;;;;;2.08;1.30;;;;;;;;;;4997037;28;20183;-66
2023/08/27 11:29:03;;;;;;;1.13;0.90;;;;;;;;;;4999020;28;20210;-67
2023/08/27 11:31:29;;;;;;;2.00;0.90;;;;;;;;;;4994938;28;20186;-66
2023/08/27 11:33:54;;;;;;;0.77;0.68;;;;;;;;;;4994768;28;20202;-66
2023/08/27 11:36:20;;;;;;;0.88;0.68;;;;;;;;;;4993699;28;20187;-66
2023/08/27 11:38:45;;;;;;;1.77;0.80;;;;;;;;;;4997095;28;20677;-66
2023/08/27 11:41:10;;;;;;;1.45;0.80;;;;;;;;;;4996195;28;20187;-67
2023/08/27 11:43:35;;;;;;;3.10;1.20;;;;;;;;;;4997984;28;20195;-67
2023/08/27 11:46:00;;;;;;;1.25;1.00;;;;;;;;;;4996827;28;20565;-66
2023/08/27 11:48:26;;;;;;;1.38;1.00;;;;;;;;;;4997208;28;20699;-67
2023/08/27 11:50:51;;;;;;;1.58;1.00;;;;;;;;;;4998500;28;20274;-67
2023/08/27 11:53:16;;;;;;;1.23;0.95;;;;;;;;;;4995822;28;20969;-67
2023/08/27 11:55:43;;;;;;;1.05;0.90;;;;;;;;;;4996279;28;20191;-67
2023/08/27 11:58:09;;;;;;;2.13;1.15;;;;;;;;;;4994880;28;20222;-66
2023/08/27 12:00:35;;;;;;;2.03;1.00;;;;;;;;;;4996113;28;20630;-66
2023/08/27 12:03:00;;;;;;;1.33;0.82;;;;;;;;;;4989010;28;20338;-67
2023/08/27 12:05:27;;;;;;;1.02;0.60;;;;;;;;;;4994550;28;20278;-66
2023/08/27 12:07:52;;;;;;;3.15;1.08;;;;;;;;;;4998072;28;20186;-67
2023/08/27 12:10:17;;;;;;;1.02;0.68;;;;;;;;;;4997036;28;20245;-67
2023/08/27 12:12:44;;;;;;;1.25;0.50;;;;;;;;;;4997886;28;20219;-65
2023/08/27 12:15:10;;;;;;;1.75;0.68;;;;;;;;;;4994815;28;20787;-66
2023/08/27 12:17:36;;;;;;;2.58;0.77;;;;;;;;;;4993347;28;20246;-67
2023/08/27 12:20:05;;;;;;;1.20;0.90;;;;;;;;;;4997072;28;20198;-66
2023/08/27 12:22:32;;;;;;;1.52;0.77;;;;;;;;;;4998562;28;20240;-66
2023/08/27 12:24:58;;;;;;;0.65;0.40;;;;;;;;;;4996633;28;20202;-66
2023/08/27 12:27:25;;;;;;;1.10;0.70;;;;;;;;;;4997182;28;20273;-66
2023/08/27 12:29:53;;;;;;;1.27;0.40;;;;;;;;;;4996404;28;21041;-66
2023/08/27 12:32:21;;;;;;;1.02;0.80;;;;;;;;;;4992980;28;20211;-66
2023/08/27 12:34:47;;;;;;;1.88;0.60;;;;;;;;;;4997961;28;20207;-66
2023/08/27 12:37:13;;;;;;;1.65;0.90;;;;;;;;;;4995661;28;20727;-65
2023/08/27 12:39:38;;;;;;;3.95;1.08;;;;;;;;;;4996866;28;20191;-65
2023/08/27 12:42:04;;;;;;;1.75;1.42;;;;;;;;;;4998040;28;20695;-66
2023/08/27 12:44:29;;;;;;;2.00;1.00;;;;;;;;;;4997886;28;20210;-66
2023/08/27 12:46:54;;;;;;;1.15;0.93;;;;;;;;;;4994557;28;20892;-66
2023/08/27 12:49:20;;;;;;;4.47;1.23;;;;;;;;;;4998203;28;20762;-66
2023/08/27 12:51:45;;;;;;;2.95;1.00;;;;;;;;;;4996549;28;20179;-66
2023/08/27 12:54:11;;;;;;;1.88;1.10;;;;;;;;;;4996339;28;20648;-66
2023/08/27 12:56:37;;;;;;;3.85;1.42;;;;;;;;;;4990317;28;20675;-66
2023/08/27 12:59:02;;;;;;;4.13;1.00;;;;;;;;;;4991600;28;20266;-66
2023/08/27 13:01:28;;;;;;;4.80;1.40;;;;;;;;;;4994699;28;20187;-66
2023/08/27 13:03:53;;;;;;;1.52;1.23;;;;;;;;;;4996436;28;20206;-67
2023/08/27 13:06:19;;;;;;;2.10;1.33;;;;;;;;;;4997616;28;20182;-67
2023/08/27 13:08:44;;;;;;;2.15;1.30;;;;;;;;;;4997529;28;20203;-67
2023/08/27 13:11:09;;;;;;;1.23;1.05;;;;;;;;;;4997136;28;20253;-67
2023/08/27 13:13:34;;;;;;;1.88;1.30;;;;;;;;;;4996167;28;20301;-67
2023/08/27 13:16:00;;;;;;;1.92;1.13;;;;;;;;;;4999967;28;20187;-67
2023/08/27 13:18:25;;;;;;;4.28;1.73;;;;;;;;;;4996424;28;20815;-67
2023/08/27 13:20:50;;;;;;;6.80;1.55;;;;;;;;;;5001844;28;20179;-67
2023/08/27 13:23:16;;;;;;;2.75;1.45;;;;;;;;;;5001554;28;20241;-66
2023/08/27 13:25:42;;;;;;;1.52;1.42;;;;;;;;;;5002128;28;20178;-66
2023/08/27 13:28:07;;;;;;;2.25;1.30;;;;;;;;;;4997111;28;20183;-67
2023/08/27 13:30:33;;;;;;;3.15;1.60;;;;;;;;;;4994506;28;20201;-67
2023/08/27 13:32:58;;;;;;;1.90;1.77;;;;;;;;;;4998993;28;20207;-67
2023/08/27 13:35:23;;;;;;;3.08;1.55;;;;;;;;;;4999362;28;20574;-67
2023/08/27 13:37:49;;;;;;;1.55;1.35;;;;;;;;;;5000576;28;20241;-67
2023/08/27 13:40:15;;;;;;;6.05;1.98;;;;;;;;;;5000509;28;20568;-67
2023/08/27 13:42:40;;;;;;;2.17;1.60;;;;;;;;;;5000039;28;20242;-66
2023/08/27 13:45:05;;;;;;;4.38;2.17;;;;;;;;;;5000355;28;20190;-67
2023/08/27 13:47:30;;;;;;;1.40;1.30;;;;;;;;;;4999088;28;20205;-67
2023/08/27 13:49:56;;;;;;;1.70;1.35;;;;;;;;;;4994390;28;20215;-67
2023/08/27 13:52:21;;;;;;;2.45;1.00;;;;;;;;;;4998507;28;20293;-67
2023/08/27 13:54:46;;;;;;;0.63;0.60;;;;;;;;;;4995212;28;20197;-67
2023/08/27 13:57:12;;;;;;;0.80;0.50;;;;;;;;;;4999597;28;20567;-67
2023/08/27 13:59:37;;;;;;;0.40;0.40;;;;;;;;;;5000919;28;20577;-66
2023/08/27 14:02:03;;;;;;;0.88;0.40;;;;;;;;;;4998857;28;20317;-67
2023/08/27 14:04:28;;;;;;;1.27;0.40;;;;;;;;;;5000595;28;20496;-67
2023/08/27 14:06:55;;;;;;;1.50;0.50;;;;;;;;;;5001012;28;20843;-67
2023/08/27 14:09:20;;;;;;;0.80;0.47;;;;;;;;;;5001148;28;20677;-66
2023/08/27 14:11:45;;;;;;;1.23;0.75;;;;;;;;;;5001103;28;20203;-67
2023/08/27 14:14:10;;;;;;;0.75;0.60;;;;;;;;;;5000106;28;20588;-67
2023/08/27 14:16:36;;;;;;;1.33;1.02;;;;;;;;;;5001810;28;20202;-67
2023/08/27 14:19:01;;;;;;;3.67;1.02;;;;;;;;;;5000084;28;20230;-67
2023/08/27 14:21:26;;;;;;;1.20;0.73;;;;;;;;;;5000243;28;20221;-67
2023/08/27 14:23:51;;;;;;;2.25;1.00;;;;;;;;;;4998434;28;20218;-67
2023/08/27 14:26:17;;;;;;;0.98;0.73;;;;;;;;;;4998942;28;20186;-67
2023/08/27 14:28:43;;;;;;;1.58;1.30;;;;;;;;;;4999652;28;20221;-68
2023/08/27 14:31:08;;;;;;;11.73;1.60;;;;;;;;;;5000637;28;20187;-67
2023/08/27 14:33:33;;;;;;;1.20;0.80;;;;;;;;;;5000984;28;20735;-66